Time;durP1;ratioP1;P1;durP2;ratioP2;P2;SDS_P1;SDS_P2;PMS_P1;PMS_P2;Temp;Humidity;BMP_temperature;BMP_pressure;BME280_temperature;BME280_humidity;BME280_pressure;Samples;Min_cycle;Max_cycle;Signal;HPM_P1;HPM_P2
2021/12/10 00:01:19;;;;;;;;;;;15.70;38.60;;;;;;8366567;28;19931;-48
2021/12/10 00:05:23;;;;;;;;;;;15.70;38.60;;;;;;8366396;28;19963;-49
2021/12/10 00:09:25;;;;;;;;;;;15.70;39.10;;;;;;8366258;28;19959;-51
2021/12/10 00:13:26;;;;;;;;;;;15.70;38.60;;;;;;8366456;28;19982;-51
2021/12/10 00:17:27;;;;;;;;;;;15.70;38.50;;;;;;8366405;28;19921;-48
2021/12/10 00:21:29;;;;;;;;;;;15.70;38.50;;;;;;8364874;28;19960;-47
2021/12/10 00:25:37;;;;;;;;;;;15.70;38.60;;;;;;8366136;28;20353;-49
2021/12/10 00:29:41;;;;;;;;;;;15.70;38.60;;;;;;8366169;28;19924;-52
2021/12/10 00:33:48;;;;;;;;;;;15.70;38.50;;;;;;8365282;28;20385;-49
2021/12/10 00:37:48;;;;;;;;;;;15.70;38.50;;;;;;8365631;28;19916;-49
2021/12/10 00:41:49;;;;;;;;;;;15.70;38.50;;;;;;8363927;28;19992;-49
2021/12/10 00:45:50;;;;;;;;;;;15.70;38.50;;;;;;8365302;28;20410;-49
2021/12/10 00:49:51;;;;;;;;;;;15.70;38.50;;;;;;8364858;28;19924;-48
2021/12/10 00:53:52;;;;;;;;;;;15.70;38.50;;;;;;8364514;28;20370;-49
2021/12/10 00:57:53;;;;;;;;;;;15.70;38.50;;;;;;8365311;28;19921;-48
2021/12/10 01:01:54;;;;;;;;;;;15.70;38.50;;;;;;8365032;28;20335;-48
2021/12/10 01:05:56;;;;;;;;;;;15.70;38.50;;;;;;8364150;28;19921;-49
2021/12/10 01:09:58;;;;;;;;;;;15.70;38.50;;;;;;8364980;28;19955;-49
2021/12/10 01:14:09;;;;;;;;;;;15.70;38.50;;;;;;8364524;28;19917;-48
2021/12/10 01:26:55;;;;;;;;;;;15.60;38.50;;;;;;8364066;28;19923;-49
2021/12/10 01:30:56;;;;;;;;;;;15.60;38.50;;;;;;8364106;28;19932;-48
2021/12/10 01:34:57;;;;;;;;;;;15.60;38.50;;;;;;8364175;28;19923;-49
2021/12/10 01:38:57;;;;;;;;;;;15.70;38.50;;;;;;8363331;28;19917;-48
2021/12/10 01:43:06;;;;;;;;;;;15.60;38.50;;;;;;8364120;28;19923;-49
2021/12/10 01:47:07;;;;;;;;;;;15.60;38.50;;;;;;8366173;28;20331;-48
2021/12/10 01:51:08;;;;;;;;;;;15.60;38.50;;;;;;8362950;28;19925;-48
2021/12/10 01:55:10;;;;;;;;;;;15.60;38.50;;;;;;8363371;28;19917;-50
2021/12/10 01:59:12;;;;;;;;;;;15.60;38.50;;;;;;8363454;28;20358;-49
2021/12/10 02:03:12;;;;;;;;;;;15.60;38.40;;;;;;8362868;28;19917;-48
2021/12/10 02:07:16;;;;;;;;;;;15.60;38.40;;;;;;8363501;28;20394;-52
2021/12/10 02:11:17;;;;;;;;;;;15.60;38.40;;;;;;8348734;28;20382;-50
2021/12/10 02:15:21;;;;;;;;;;;15.60;38.40;;;;;;8362766;28;19917;-48
2021/12/10 02:19:21;;;;;;;;;;;15.60;38.90;;;;;;8362911;28;20434;-50
2021/12/10 02:23:22;;;;;;;;;;;15.60;38.40;;;;;;8362737;28;19921;-52
2021/12/10 02:27:23;;;;;;;;;;;15.60;38.40;;;;;;8362513;28;19917;-47
2021/12/10 02:31:24;;;;;;;;;;;15.60;38.40;;;;;;8362607;28;20298;-49
2021/12/10 02:35:25;;;;;;;;;;;15.60;38.40;;;;;;8362840;28;19923;-48
2021/12/10 02:39:27;;;;;;;;;;;15.60;38.40;;;;;;8362251;28;19917;-48
2021/12/10 02:43:27;;;;;;;;;;;15.60;38.40;;;;;;8362711;28;19921;-49
2021/12/10 02:47:28;;;;;;;;;;;15.60;38.90;;;;;;8362662;28;19917;-49
2021/12/10 02:51:28;;;;;;;;;;;15.50;38.30;;;;;;8361890;28;20382;-49
2021/12/10 02:55:29;;;;;;;;;;;15.60;38.30;;;;;;8362686;28;19940;-49
2021/12/10 02:59:30;;;;;;;;;;;15.60;38.40;;;;;;8362262;28;19931;-52
2021/12/10 03:03:30;;;;;;;;;;;15.50;38.30;;;;;;8362204;28;19917;-50
2021/12/10 03:07:31;;;;;;;;;;;15.50;38.30;;;;;;8366188;28;19967;-52
2021/12/10 03:11:33;;;;;;;;;;;15.50;38.30;;;;;;8368434;28;19936;-52
2021/12/10 03:15:35;;;;;;;;;;;15.50;38.30;;;;;;8368109;28;20004;-51
2021/12/10 03:19:36;;;;;;;;;;;15.50;38.40;;;;;;8368318;28;19923;-49
2021/12/10 03:23:42;;;;;;;;;;;15.50;38.30;;;;;;8367845;28;19921;-48
2021/12/10 03:27:43;;;;;;;;;;;15.50;38.30;;;;;;8367683;28;19923;-49
2021/12/10 03:31:43;;;;;;;;;;;15.50;38.30;;;;;;8367386;28;19964;-49
2021/12/10 03:35:45;;;;;;;;;;;15.50;38.30;;;;;;8367735;28;19943;-49
2021/12/10 03:39:47;;;;;;;;;;;15.50;38.30;;;;;;8366927;28;19970;-49
2021/12/10 03:43:49;;;;;;;;;;;15.50;38.30;;;;;;8367480;28;19916;-49
2021/12/10 03:47:49;;;;;;;;;;;15.50;38.20;;;;;;8366870;28;20401;-48
2021/12/10 03:51:50;;;;;;;;;;;15.50;38.20;;;;;;8367092;28;19970;-48
2021/12/10 03:55:56;;;;;;;;;;;15.50;38.20;;;;;;8367251;28;19917;-47
2021/12/10 03:59:56;;;;;;;;;;;15.50;38.30;;;;;;8366701;28;19921;-48
2021/12/10 04:03:58;;;;;;;;;;;15.50;38.30;;;;;;8366922;28;19927;-47
2021/12/10 04:07:59;;;;;;;;;;;15.50;38.30;;;;;;8366504;28;19917;-49
2021/12/10 04:12:00;;;;;;;;;;;15.50;38.30;;;;;;8366041;28;19925;-50
2021/12/10 04:16:00;;;;;;;;;;;15.50;38.20;;;;;;8366768;28;19921;-48
2021/12/10 04:20:02;;;;;;;;;;;15.50;38.20;;;;;;8365909;28;19978;-50
2021/12/10 04:24:03;;;;;;;;;;;15.50;38.30;;;;;;8365703;28;20381;-48
2021/12/10 04:28:07;;;;;;;;;;;15.50;38.30;;;;;;8365824;28;19931;-48
2021/12/10 04:32:09;;;;;;;;;;;15.50;38.30;;;;;;8365759;28;19925;-49
2021/12/10 04:36:10;;;;;;;;;;;15.50;38.20;;;;;;8365502;28;19968;-48
2021/12/10 04:40:11;;;;;;;;;;;15.50;38.20;;;;;;8365761;28;19917;-48
2021/12/10 04:44:12;;;;;;;;;;;15.50;38.20;;;;;;8365327;28;19917;-48
2021/12/10 04:48:13;;;;;;;;;;;15.50;38.20;;;;;;8364834;28;19952;-49
2021/12/10 04:52:13;;;;;;;;;;;15.50;38.20;;;;;;8365029;28;19968;-48
2021/12/10 04:56:14;;;;;;;;;;;15.50;38.20;;;;;;8365261;28;19963;-47
2021/12/10 05:00:20;;;;;;;;;;;15.50;38.20;;;;;;8364738;28;20010;-48
2021/12/10 05:04:21;;;;;;;;;;;15.50;38.20;;;;;;8365072;28;20299;-48
2021/12/10 05:08:21;;;;;;;;;;;15.50;38.20;;;;;;8364640;28;19921;-48
2021/12/10 05:12:22;;;;;;;;;;;15.50;38.20;;;;;;8363335;28;19931;-48
2021/12/10 05:16:26;;;;;;;;;;;15.50;38.20;;;;;;8364566;28;19916;-49
2021/12/10 05:20:36;;;;;;;;;;;15.50;38.20;;;;;;8364176;28;19963;-50
2021/12/10 05:24:37;;;;;;;;;;;15.50;38.20;;;;;;8363579;28;19970;-48
2021/12/10 05:28:37;;;;;;;;;;;15.50;38.20;;;;;;8363328;28;19916;-52
2021/12/10 05:32:38;;;;;;;;;;;15.50;38.20;;;;;;8364054;28;20271;-48
2021/12/10 05:36:39;;;;;;;;;;;15.50;38.20;;;;;;8363603;28;19917;-49
2021/12/10 05:40:40;;;;;;;;;;;15.50;38.20;;;;;;8363687;28;19924;-49
2021/12/10 05:44:40;;;;;;;;;;;15.50;38.10;;;;;;8363836;28;19923;-49
2021/12/10 05:48:41;;;;;;;;;;;15.50;38.20;;;;;;8363036;28;19917;-49
2021/12/10 05:52:41;;;;;;;;;;;15.50;38.20;;;;;;8363442;28;19932;-50
2021/12/10 05:56:42;;;;;;;;;;;15.50;38.20;;;;;;8363494;28;20009;-51
2021/12/10 06:00:44;;;;;;;;;;;15.40;38.10;;;;;;8362943;28;19928;-48
2021/12/10 06:04:45;;;;;;;;;;;15.40;38.10;;;;;;8363321;28;20423;-49
2021/12/10 06:08:45;;;;;;;;;;;15.40;38.10;;;;;;8363217;28;19970;-48
2021/12/10 06:12:47;;;;;;;;;;;15.40;38.10;;;;;;8362617;28;19925;-52
2021/12/10 06:16:47;;;;;;;;;;;15.40;38.20;;;;;;8362965;28;19912;-51
2021/12/10 06:20:49;;;;;;;;;;;15.40;38.10;;;;;;8362876;28;19970;-51
2021/12/10 06:24:50;;;;;;;;;;;15.40;38.10;;;;;;8362547;28;20011;-49
2021/12/10 06:28:50;;;;;;;;;;;15.40;38.10;;;;;;8362782;28;19924;-49
2021/12/10 06:32:54;;;;;;;;;;;15.40;38.10;;;;;;8362407;28;19932;-49
2021/12/10 06:36:54;;;;;;;;;;;15.40;38.10;;;;;;8363163;28;20022;-51
2021/12/10 06:40:55;;;;;;;;;;;15.40;38.10;;;;;;8365622;28;19978;-52
2021/12/10 06:44:56;;;;;;;;;;;15.40;38.10;;;;;;8368757;28;19917;-51
2021/12/10 06:48:56;;;;;;;;;;;15.40;38.10;;;;;;8368828;28;19917;-48
2021/12/10 06:52:57;;;;;;;;;;;15.40;38.10;;;;;;8368867;28;20019;-49
2021/12/10 06:56:58;;;;;;;;;;;15.40;38.10;;;;;;8368634;28;19921;-50
2021/12/10 07:01:06;;;;;;;;;;;15.40;38.10;;;;;;8368933;28;19921;-48
2021/12/10 07:05:06;;;;;;;;;;;15.40;38.20;;;;;;8368683;28;20384;-48
2021/12/10 07:09:12;;;;;;;;;;;15.40;38.10;;;;;;8368086;28;19916;-48
2021/12/10 07:13:13;;;;;;;;;;;15.40;38.10;;;;;;8368323;28;19925;-52
2021/12/10 07:17:13;;;;;;;;;;;15.40;38.10;;;;;;8368751;28;20383;-49
2021/12/10 07:21:14;;;;;;;;;;;15.40;38.10;;;;;;8367565;28;19917;-48
2021/12/10 07:25:15;;;;;;;;;;;15.40;38.10;;;;;;8367946;28;19920;-48
2021/12/10 07:29:15;;;;;;;;;;;15.40;38.10;;;;;;8367881;28;19940;-48
2021/12/10 07:33:17;;;;;;;;;;;15.40;38.10;;;;;;8367228;28;19978;-48
2021/12/10 07:37:17;;;;;;;;;;;15.40;38.10;;;;;;8367821;28;19917;-49
2021/12/10 07:41:18;;;;;;;;;;;15.40;38.10;;;;;;8367380;28;20378;-48
2021/12/10 07:45:19;;;;;;;;;;;15.40;38.10;;;;;;8366962;28;20342;-47
2021/12/10 07:49:27;;;;;;;;;;;15.40;38.10;;;;;;8367599;28;20362;-48
2021/12/10 07:53:29;;;;;;;;;;;15.40;38.10;;;;;;8369927;28;19932;-48
2021/12/10 07:57:30;;;;;;;;;;;15.40;38.10;;;;;;8367031;28;19919;-49
2021/12/10 08:01:30;;;;;;;;;;;15.40;38.10;;;;;;8367144;28;19962;-48
2021/12/10 08:05:31;;;;;;;;;;;15.40;38.10;;;;;;8366939;28;20007;-48
2021/12/10 08:09:31;;;;;;;;;;;15.40;38.10;;;;;;8365457;28;19921;-49
2021/12/10 08:13:32;;;;;;;;;;;15.40;38.10;;;;;;8366368;28;19932;-48
2021/12/10 08:17:33;;;;;;;;;;;15.40;38.10;;;;;;8366721;28;19971;-49
2021/12/10 08:21:33;;;;;;;;;;;15.40;38.10;;;;;;8365729;28;19954;-48
2021/12/10 08:25:35;;;;;;;;;;;15.40;38.10;;;;;;8366221;28;19921;-49
2021/12/10 08:29:35;;;;;;;;;;;15.40;38.10;;;;;;8365847;28;20275;-48
2021/12/10 08:33:36;;;;;;;;;;;15.40;38.10;;;;;;8365309;28;19925;-48
2021/12/10 08:37:37;;;;;;;;;;;15.40;38.10;;;;;;8365923;28;19913;-48
2021/12/10 08:41:38;;;;;;;;;;;15.40;38.10;;;;;;8365452;28;19917;-47
2021/12/10 08:45:40;;;;;;;;;;;15.40;38.20;;;;;;8365014;28;20335;-48
2021/12/10 08:49:41;;;;;;;;;;;15.30;38.10;;;;;;8365270;28;19952;-48
2021/12/10 08:53:42;;;;;;;;;;;15.40;38.10;;;;;;8365210;28;20297;-48
2021/12/10 08:57:42;;;;;;;;;;;15.40;38.10;;;;;;8364869;28;19916;-48
2021/12/10 09:01:45;;;;;;;;;;;15.40;38.10;;;;;;8365133;28;19948;-48
2021/12/10 09:05:45;;;;;;;;;;;15.30;38.10;;;;;;8364087;28;20435;-48
2021/12/10 09:09:46;;;;;;;;;;;15.40;38.10;;;;;;8364073;28;19916;-49
2021/12/10 09:13:47;;;;;;;;;;;15.30;38.10;;;;;;8364436;28;20015;-47
2021/12/10 09:17:48;;;;;;;;;;;15.30;38.10;;;;;;8364705;28;19916;-48
2021/12/10 09:21:49;;;;;;;;;;;15.40;38.10;;;;;;8339383;28;19944;-50
2021/12/10 09:25:52;;;;;;;;;;;15.40;38.10;;;;;;8364131;28;19917;-49
2021/12/10 09:29:54;;;;;;;;;;;15.40;38.10;;;;;;8363745;28;19935;-48
2021/12/10 09:33:56;;;;;;;;;;;15.40;38.10;;;;;;8363921;28;20012;-49
2021/12/10 09:37:57;;;;;;;;;;;15.40;38.10;;;;;;8364252;28;19921;-49
2021/12/10 09:41:58;;;;;;;;;;;15.30;38.10;;;;;;8363266;28;19921;-49
2021/12/10 09:45:59;;;;;;;;;;;15.30;38.00;;;;;;8363631;28;19916;-48
2021/12/10 09:49:59;;;;;;;;;;;15.40;38.10;;;;;;8363885;28;20362;-48
2021/12/10 09:54:02;;;;;;;;;;;15.40;38.10;;;;;;8363022;28;19966;-48
2021/12/10 09:58:04;;;;;;;;;;;15.40;38.10;;;;;;8363974;28;19936;-49
2021/12/10 10:02:05;;;;;;;;;;;15.30;38.10;;;;;;8363609;28;19969;-48
2021/12/10 10:06:06;;;;;;;;;;;15.30;38.10;;;;;;8363378;28;19913;-49
2021/12/10 10:10:09;;;;;;;;;;;15.30;38.10;;;;;;8363309;28;19928;-50
2021/12/10 10:14:10;;;;;;;;;;;15.30;38.10;;;;;;8363781;28;19920;-48
2021/12/10 10:18:11;;;;;;;;;;;15.30;38.10;;;;;;8373789;28;19916;-49
2021/12/10 10:22:14;;;;;;;;;;;15.40;38.10;;;;;;8374349;28;19917;-50
2021/12/10 10:26:19;;;;;;;;;;;15.30;38.10;;;;;;8373910;28;19917;-51
2021/12/10 10:30:25;;;;;;;;;;;15.30;38.10;;;;;;8373345;28;19932;-48
2021/12/10 10:34:26;;;;;;;;;;;15.40;38.10;;;;;;8375934;28;19950;-48
2021/12/10 10:38:27;;;;;;;;;;;15.30;38.10;;;;;;8374130;28;20301;-50
2021/12/10 10:42:28;;;;;;;;;;;15.30;38.10;;;;;;8373321;28;19927;-48
2021/12/10 10:46:29;;;;;;;;;;;15.40;38.10;;;;;;8373903;28;20003;-48
2021/12/10 10:50:34;;;;;;;;;;;15.40;38.10;;;;;;8373776;28;19920;-47
2021/12/10 10:54:35;;;;;;;;;;;15.30;38.10;;;;;;8373152;28;19944;-48
2021/12/10 10:58:37;;;;;;;;;;;15.30;38.10;;;;;;8373749;28;19975;-51
2021/12/10 11:02:48;;;;;;;;;;;15.40;38.10;;;;;;8372502;28;19924;-49
2021/12/10 11:06:50;;;;;;;;;;;15.40;38.10;;;;;;8373347;28;19924;-49
2021/12/10 11:10:51;;;;;;;;;;;15.40;38.20;;;;;;8373455;28;19932;-49
2021/12/10 11:14:53;;;;;;;;;;;15.40;38.10;;;;;;8372985;28;19970;-49
2021/12/10 11:18:56;;;;;;;;;;;15.40;38.20;;;;;;8373538;28;20370;-48
2021/12/10 11:23:05;;;;;;;;;;;15.30;38.10;;;;;;8373746;28;19979;-49
2021/12/10 11:27:08;;;;;;;;;;;15.30;38.10;;;;;;8369712;28;19962;-48
2021/12/10 11:31:14;;;;;;;;;;;15.30;38.10;;;;;;8367710;28;19925;-48
2021/12/10 11:35:17;;;;;;;;;;;15.30;38.10;;;;;;8368030;28;19921;-49
2021/12/10 11:39:18;;;;;;;;;;;15.30;38.20;;;;;;8367579;28;20004;-51
2021/12/10 11:47:41;;;;;;;;;;;15.30;38.20;;;;;;8369806;28;19925;-51
2021/12/10 11:51:41;;;;;;;;;;;15.30;38.20;;;;;;8366636;28;19932;-50
2021/12/10 11:55:56;;;;;;;;;;;15.30;38.20;;;;;;8367007;28;19960;-48
2021/12/10 11:59:58;;;;;;;;;;;15.30;38.30;;;;;;8366176;28;19928;-48
2021/12/10 12:04:13;;;;;;;;;;;15.30;38.30;;;;;;8367191;28;19995;-48
2021/12/10 12:08:16;;;;;;;;;;;15.30;38.20;;;;;;8366673;28;19917;-48
2021/12/10 12:12:18;;;;;;;;;;;15.30;38.30;;;;;;8366087;28;19925;-49
2021/12/10 12:16:24;;;;;;;;;;;15.30;38.20;;;;;;8366505;28;19939;-49
2021/12/10 12:20:29;;;;;;;;;;;15.30;38.30;;;;;;8368842;28;19986;-48
2021/12/10 12:29:05;;;;;;;;;;;15.30;38.30;;;;;;8371742;28;20389;-47
2021/12/10 12:33:10;;;;;;;;;;;15.30;38.20;;;;;;8365319;28;19956;-49
2021/12/10 12:37:13;;;;;;;;;;;15.40;38.20;;;;;;8365718;28;19916;-48
2021/12/10 12:41:19;;;;;;;;;;;15.30;38.20;;;;;;8365674;28;19917;-49
2021/12/10 12:45:23;;;;;;;;;;;15.30;38.20;;;;;;8365031;28;20003;-49
2021/12/10 12:49:24;;;;;;;;;;;15.30;38.20;;;;;;8365810;28;19936;-49
2021/12/10 12:53:29;;;;;;;;;;;15.30;38.30;;;;;;8365369;28;19924;-49
2021/12/10 12:57:42;;;;;;;;;;;15.30;38.20;;;;;;8364827;28;20007;-48
2021/12/10 13:01:45;;;;;;;;;;;15.30;38.30;;;;;;8365267;28;19921;-49
2021/12/10 13:05:58;;;;;;;;;;;15.30;38.30;;;;;;8364678;28;19975;-49
2021/12/10 13:10:03;;;;;;;;;;;15.30;38.30;;;;;;8364459;28;20008;-50
2021/12/10 13:14:12;;;;;;;;;;;15.30;38.30;;;;;;8365028;28;19927;-51
2021/12/10 13:18:13;;;;;;;;;;;15.30;38.30;;;;;;8365744;28;20003;-49
2021/12/10 13:22:16;;;;;;;;;;;15.30;38.20;;;;;;8364728;28;19917;-49
2021/12/10 13:26:16;;;;;;;;;;;15.30;38.30;;;;;;8365273;28;19916;-49
2021/12/10 13:30:19;;;;;;;;;;;15.30;38.20;;;;;;8363601;28;19925;-49
2021/12/10 13:34:20;;;;;;;;;;;15.40;38.30;;;;;;8364373;28;19913;-49
2021/12/10 13:38:20;;;;;;;;;;;15.30;38.30;;;;;;8364074;28;19916;-49
2021/12/10 13:42:21;;;;;;;;;;;15.30;38.30;;;;;;8363674;28;20012;-48
2021/12/10 13:46:23;;;;;;;;;;;15.30;38.30;;;;;;8363853;28;20019;-47
2021/12/10 13:50:25;;;;;;;;;;;15.30;38.30;;;;;;8362815;28;19957;-48
2021/12/10 13:54:25;;;;;;;;;;;15.40;38.30;;;;;;8363150;28;19967;-48
2021/12/10 13:58:26;;;;;;;;;;;15.30;38.30;;;;;;8363576;28;19917;-49
2021/12/10 14:02:38;;;;;;;;;;;15.40;38.30;;;;;;8363487;28;19916;-48
2021/12/10 14:06:42;;;;;;;;;;;15.40;38.30;;;;;;8362787;28;19917;-49
2021/12/10 14:10:47;;;;;;;;;;;15.30;38.20;;;;;;8362545;28;20023;-49
2021/12/10 14:15:00;;;;;;;;;;;15.40;38.30;;;;;;8363143;28;19988;-49
2021/12/10 14:19:00;;;;;;;;;;;15.40;38.30;;;;;;8362654;28;20393;-48
2021/12/10 14:23:08;;;;;;;;;;;15.40;38.30;;;;;;8362850;28;19924;-48
2021/12/10 14:27:23;;;;;;;;;;;15.30;38.30;;;;;;8362346;28;19925;-47
2021/12/10 14:31:28;;;;;;;;;;;15.30;38.30;;;;;;8362975;28;19932;-48
2021/12/10 14:35:36;;;;;;;;;;;15.30;38.30;;;;;;8363201;28;19912;-51
2021/12/10 14:39:37;;;;;;;;;;;15.30;38.30;;;;;;8362631;28;19978;-50
2021/12/10 14:43:37;;;;;;;;;;;15.40;38.30;;;;;;8362703;28;19948;-49
2021/12/10 14:47:38;;;;;;;;;;;15.30;38.30;;;;;;8362830;28;19916;-51
2021/12/10 14:51:40;;;;;;;;;;;15.30;38.30;;;;;;8362247;28;20350;-47
2021/12/10 14:55:42;;;;;;;;;;;15.30;38.30;;;;;;8362841;28;20243;-48
2021/12/10 14:59:43;;;;;;;;;;;15.30;38.30;;;;;;8363066;28;20277;-47
2021/12/10 15:03:47;;;;;;;;;;;15.30;38.30;;;;;;8365846;28;19917;-47
2021/12/10 15:07:47;;;;;;;;;;;15.40;38.40;;;;;;8368611;28;19917;-48
2021/12/10 15:11:52;;;;;;;;;;;15.30;38.30;;;;;;8368284;28;20370;-49
2021/12/10 15:15:53;;;;;;;;;;;15.30;38.30;;;;;;8368163;28;20190;-49
2021/12/10 15:19:56;;;;;;;;;;;15.30;38.40;;;;;;8368475;28;19999;-49
2021/12/10 15:24:00;;;;;;;;;;;15.30;38.40;;;;;;8367612;28;20338;-50
2021/12/10 15:28:03;;;;;;;;;;;15.30;38.40;;;;;;8367944;28;20244;-49
2021/12/10 15:32:15;;;;;;;;;;;15.30;38.30;;;;;;8367386;28;19953;-52
2021/12/10 15:36:16;;;;;;;;;;;15.30;38.40;;;;;;8367165;28;20301;-49
2021/12/10 15:40:24;;;;;;;;;;;15.40;38.40;;;;;;8367689;28;19919;-50
2021/12/10 15:44:25;;;;;;;;;;;15.40;38.40;;;;;;8367632;28;19963;-49
2021/12/10 15:48:26;;;;;;;;;;;15.30;38.40;;;;;;8366807;28;19917;-48
2021/12/10 15:52:27;;;;;;;;;;;15.40;38.40;;;;;;8367079;28;20298;-49
2021/12/10 15:56:30;;;;;;;;;;;15.30;38.40;;;;;;8367013;28;19932;-48
2021/12/10 16:00:32;;;;;;;;;;;15.30;38.40;;;;;;8367122;28;19924;-48
2021/12/10 16:04:39;;;;;;;;;;;15.30;38.40;;;;;;8365778;28;22295;-48
2021/12/10 16:08:43;;;;;;;;;;;15.30;38.40;;;;;;8366816;28;19959;-49
2021/12/10 16:12:44;;;;;;;;;;;15.30;38.40;;;;;;8365624;28;19943;-50
2021/12/10 16:16:46;;;;;;;;;;;15.30;38.40;;;;;;8366349;28;19913;-49
2021/12/10 16:20:52;;;;;;;;;;;15.40;38.50;;;;;;8366470;28;19943;-49
2021/12/10 16:24:56;;;;;;;;;;;15.30;38.50;;;;;;8365987;28;19916;-49
2021/12/10 16:28:59;;;;;;;;;;;15.40;38.50;;;;;;8366142;28;19923;-49
2021/12/10 16:33:03;;;;;;;;;;;15.30;38.50;;;;;;8365687;28;19928;-49
2021/12/10 16:37:05;;;;;;;;;;;15.30;38.50;;;;;;8365820;28;19913;-48
2021/12/10 16:41:14;;;;;;;;;;;15.30;38.50;;;;;;8365962;28;19917;-49
2021/12/10 16:45:20;;;;;;;;;;;15.30;38.50;;;;;;8366717;28;19921;-49
2021/12/10 16:49:22;;;;;;;;;;;15.30;38.40;;;;;;8365730;28;19946;-48
2021/12/10 16:53:31;;;;;;;;;;;15.30;38.50;;;;;;8365301;28;19979;-46
2021/12/10 16:57:35;;;;;;;;;;;15.30;38.50;;;;;;8364922;28;19924;-48
2021/12/10 17:01:55;;;;;;;;;;;15.30;38.50;;;;;;8364920;28;20293;-47
2021/12/10 17:05:56;;;;;;;;;;;15.30;38.50;;;;;;8339840;28;19917;-47
2021/12/10 17:10:03;;;;;;;;;;;15.40;38.60;;;;;;8359855;28;19917;-48
2021/12/10 17:14:03;;;;;;;;;;;15.30;38.60;;;;;;8364020;28;19924;-48
2021/12/10 17:18:06;;;;;;;;;;;15.30;38.50;;;;;;8364234;28;19913;-50
2021/12/10 17:22:09;;;;;;;;;;;15.30;38.60;;;;;;8364368;28;19996;-49
2021/12/10 17:26:11;;;;;;;;;;;15.30;38.50;;;;;;8363860;28;19954;-48
2021/12/10 17:30:14;;;;;;;;;;;15.30;38.60;;;;;;8363541;28;19917;-48
2021/12/10 17:34:16;;;;;;;;;;;15.30;38.60;;;;;;8364082;28;19970;-49
2021/12/10 17:38:17;;;;;;;;;;;15.30;38.60;;;;;;8364138;28;20366;-48
2021/12/10 17:42:19;;;;;;;;;;;15.30;38.60;;;;;;8363625;28;19920;-48
2021/12/10 17:46:23;;;;;;;;;;;15.30;38.60;;;;;;8363950;28;19913;-49
2021/12/10 17:50:26;;;;;;;;;;;15.30;38.60;;;;;;8353992;28;19972;-47
2021/12/10 17:54:47;;;;;;;;;;;15.40;38.60;;;;;;8363049;28;19917;-47
2021/12/10 17:58:48;;;;;;;;;;;15.40;38.60;;;;;;8363065;28;20370;-51
2021/12/10 18:02:53;;;;;;;;;;;15.30;38.60;;;;;;8363214;28;20051;-47
2021/12/10 18:07:13;;;;;;;;;;;15.30;38.60;;;;;;8363381;28;19913;-47
2021/12/10 18:11:15;;;;;;;;;;;15.30;38.60;;;;;;8363441;28;19925;-47
2021/12/10 18:15:27;;;;;;;;;;;15.30;39.20;;;;;;8362742;28;19960;-47
2021/12/10 18:19:28;;;;;;;;;;;15.40;38.60;;;;;;8363481;28;19928;-48
2021/12/10 18:23:31;;;;;;;;;;;15.30;38.60;;;;;;8363166;28;20377;-47
2021/12/10 18:27:31;;;;;;;;;;;15.30;38.60;;;;;;8362811;28;19916;-48
2021/12/10 18:31:35;;;;;;;;;;;15.40;38.60;;;;;;8363218;28;19932;-47
2021/12/10 18:35:37;;;;;;;;;;;15.30;39.10;;;;;;8363661;28;20024;-50
2021/12/10 18:39:45;;;;;;;;;;;15.30;38.60;;;;;;8368985;28;19995;-48
2021/12/10 18:43:48;;;;;;;;;;;15.30;38.60;;;;;;8372218;28;19920;-48
2021/12/10 18:47:49;;;;;;;;;;;15.40;38.70;;;;;;8369063;28;19992;-49
2021/12/10 18:51:51;;;;;;;;;;;15.30;38.70;;;;;;8369296;28;20297;-50
2021/12/10 18:55:53;;;;;;;;;;;15.30;38.60;;;;;;8368925;28;19917;-50
2021/12/10 18:59:56;;;;;;;;;;;15.30;38.60;;;;;;8368506;28;19924;-50
2021/12/10 19:04:24;;;;;;;;;;;15.40;38.60;;;;;;8369107;28;20422;-49
2021/12/10 19:08:26;;;;;;;;;;;15.40;38.70;;;;;;8368379;28;19923;-48
2021/12/10 19:12:27;;;;;;;;;;;15.30;38.60;;;;;;8368129;28;19927;-48
2021/12/10 19:16:29;;;;;;;;;;;15.30;38.60;;;;;;8368664;28;19921;-48
2021/12/10 19:20:35;;;;;;;;;;;15.30;38.60;;;;;;8369007;28;19939;-48
2021/12/10 19:24:39;;;;;;;;;;;15.40;38.70;;;;;;8367810;28;20386;-49
2021/12/10 19:28:41;;;;;;;;;;;15.30;38.60;;;;;;8368016;28;19970;-49
2021/12/10 19:32:45;;;;;;;;;;;15.40;38.70;;;;;;8368039;28;19927;-48
2021/12/10 19:36:48;;;;;;;;;;;15.30;38.60;;;;;;8367621;28;20509;-50
2021/12/10 19:40:51;;;;;;;;;;;15.30;38.60;;;;;;8367700;28;19917;-50
2021/12/10 19:45:12;;;;;;;;;;;15.40;38.60;;;;;;8367249;28;19924;-49
2021/12/10 19:49:17;;;;;;;;;;;15.30;38.60;;;;;;8366032;28;20333;-50
2021/12/10 19:53:21;;;;;;;;;;;15.40;38.60;;;;;;8367269;28;19924;-51
2021/12/10 19:57:24;;;;;;;;;;;15.30;38.60;;;;;;8366933;28;19913;-49
2021/12/10 20:01:28;;;;;;;;;;;15.40;38.60;;;;;;8367338;28;19982;-50
2021/12/10 20:05:32;;;;;;;;;;;15.40;38.60;;;;;;8344889;28;19921;-50
2021/12/10 20:09:36;;;;;;;;;;;15.40;38.70;;;;;;8348427;28;19921;-50
2021/12/10 20:13:45;;;;;;;;;;;15.40;38.60;;;;;;8366539;28;19921;-49
2021/12/10 20:17:48;;;;;;;;;;;15.40;38.60;;;;;;8367057;28;20019;-50
2021/12/10 20:22:04;;;;;;;;;;;15.40;38.60;;;;;;8366639;28;20290;-53
2021/12/10 20:26:07;;;;;;;;;;;15.40;38.60;;;;;;8366351;28;19971;-48
2021/12/10 20:30:23;;;;;;;;;;;15.40;38.60;;;;;;8365812;28;19912;-50
2021/12/10 20:34:23;;;;;;;;;;;15.40;38.60;;;;;;8364782;28;19920;-49
2021/12/10 20:38:30;;;;;;;;;;;15.40;38.60;;;;;;8365893;28;19924;-51
2021/12/10 20:42:33;;;;;;;;;;;15.40;38.60;;;;;;8365745;28;20043;-49
2021/12/10 20:46:36;;;;;;;;;;;15.40;38.60;;;;;;8365648;28;19920;-49
2021/12/10 20:50:39;;;;;;;;;;;15.30;38.70;;;;;;8365276;28;20384;-49
2021/12/10 20:54:42;;;;;;;;;;;15.30;38.60;;;;;;8364871;28;19917;-51
2021/12/10 20:58:45;;;;;;;;;;;15.30;38.60;;;;;;8365419;28;19932;-49
2021/12/10 21:02:47;;;;;;;;;;;15.30;38.60;;;;;;8365500;28;19996;-48
2021/12/10 21:06:49;;;;;;;;;;;15.30;38.60;;;;;;8364611;28;19917;-49
2021/12/10 21:10:55;;;;;;;;;;;15.30;38.60;;;;;;8364931;28;20283;-48
2021/12/10 21:14:58;;;;;;;;;;;15.30;38.60;;;;;;8364494;28;19928;-49
2021/12/10 21:19:06;;;;;;;;;;;15.30;38.60;;;;;;8365052;28;20397;-49
2021/12/10 21:23:09;;;;;;;;;;;15.30;38.60;;;;;;8364963;28;19912;-47
2021/12/10 21:27:13;;;;;;;;;;;15.30;38.60;;;;;;8364063;28;19940;-51
2021/12/10 21:31:15;;;;;;;;;;;15.30;38.70;;;;;;8364100;28;19925;-48
2021/12/10 21:35:31;;;;;;;;;;;15.30;38.60;;;;;;8364187;28;19964;-48
2021/12/10 21:39:42;;;;;;;;;;;15.30;38.60;;;;;;8363613;28;20003;-48
2021/12/10 21:43:47;;;;;;;;;;;15.30;38.60;;;;;;8363919;28;19925;-48
2021/12/10 21:47:48;;;;;;;;;;;15.30;38.60;;;;;;8364051;28;20293;-48
2021/12/10 21:51:53;;;;;;;;;;;15.30;38.60;;;;;;8363338;28;19931;-49
2021/12/10 21:55:59;;;;;;;;;;;15.30;38.60;;;;;;8363843;28;20485;-50
2021/12/10 22:00:12;;;;;;;;;;;15.30;38.60;;;;;;8365099;28;19921;-50
2021/12/10 22:04:15;;;;;;;;;;;15.40;38.60;;;;;;8363747;28;19957;-51
2021/12/10 22:08:21;;;;;;;;;;;15.40;38.60;;;;;;8363672;28;19912;-51
2021/12/10 22:12:31;;;;;;;;;;;15.40;38.50;;;;;;8362510;28;19924;-49
2021/12/10 22:17:01;;;;;;;;;;;15.40;38.50;;;;;;8363523;28;19924;-49
2021/12/10 22:21:04;;;;;;;;;;;15.40;38.50;;;;;;8349354;28;19964;-49
2021/12/10 22:25:12;;;;;;;;;;;15.50;38.50;;;;;;8363455;28;19921;-50
2021/12/10 22:29:18;;;;;;;;;;;15.50;38.50;;;;;;8362886;28;19917;-48
2021/12/10 22:33:23;;;;;;;;;;;15.50;38.50;;;;;;8362815;28;19928;-49
2021/12/10 22:37:25;;;;;;;;;;;15.50;38.50;;;;;;8362978;28;19917;-49
2021/12/10 22:41:32;;;;;;;;;;;15.50;39.00;;;;;;8363006;28;19927;-49
2021/12/10 22:45:39;;;;;;;;;;;15.50;38.50;;;;;;8362424;28;20378;-49
2021/12/10 22:49:43;;;;;;;;;;;15.50;38.40;;;;;;8362804;28;20054;-48
2021/12/10 22:53:46;;;;;;;;;;;15.50;38.40;;;;;;8362999;28;19927;-49
2021/12/10 22:57:50;;;;;;;;;;;15.50;38.50;;;;;;8362184;28;19921;-48
2021/12/10 23:02:05;;;;;;;;;;;15.50;39.00;;;;;;8375977;28;19921;-50
2021/12/10 23:06:09;;;;;;;;;;;15.50;38.50;;;;;;8374675;28;19917;-50
2021/12/10 23:10:12;;;;;;;;;;;15.40;38.40;;;;;;8339736;28;19913;-49
2021/12/10 23:14:16;;;;;;;;;;;15.40;38.50;;;;;;8362472;28;19924;-48
2021/12/10 23:18:24;;;;;;;;;;;15.40;38.50;;;;;;8362166;28;19971;-49
2021/12/10 23:22:25;;;;;;;;;;;15.40;38.60;;;;;;8362619;28;19924;-49
2021/12/10 23:26:26;;;;;;;;;;;15.40;38.50;;;;;;8368450;28;19928;-48
2021/12/10 23:30:31;;;;;;;;;;;15.40;38.50;;;;;;8367594;28;19921;-48
2021/12/10 23:34:32;;;;;;;;;;;15.40;38.60;;;;;;8374246;28;19924;-48
2021/12/10 23:38:40;;;;;;;;;;;15.40;38.60;;;;;;8368356;28;19921;-48
2021/12/10 23:42:42;;;;;;;;;;;15.30;38.50;;;;;;8367288;28;20000;-48
2021/12/10 23:46:45;;;;;;;;;;;15.40;38.60;;;;;;8367596;28;19971;-48
2021/12/10 23:50:49;;;;;;;;;;;15.40;38.60;;;;;;8367402;28;20066;-48